createdAt,value
2023-03-28T00:00:22.269Z,11.57
2023-03-28T00:03:44.214Z,5.73
2023-03-28T00:07:06.447Z,5.20
2023-03-28T00:10:30.306Z,6.40
2023-03-28T00:14:00.713Z,6.03
2023-03-28T00:17:23.237Z,7.23
2023-03-28T00:20:45.074Z,6.13
2023-03-28T00:24:13.649Z,6.40
2023-03-28T00:27:36.767Z,10.17
2023-03-28T00:31:18.044Z,4.83
2023-03-28T00:34:41.935Z,5.50
2023-03-28T00:38:10.140Z,10.83
2023-03-28T00:41:40.032Z,9.10
2023-03-28T00:45:01.891Z,5.17
2023-03-28T00:48:24.583Z,6.13
2023-03-28T00:52:03.052Z,5.53
2023-03-28T00:55:46.223Z,10.30
2023-03-28T00:59:23.260Z,5.37
2023-03-28T01:02:58.113Z,9.33
2023-03-28T01:06:21.513Z,10.57
2023-03-28T01:09:57.882Z,9.60
2023-03-28T01:13:34.954Z,9.57
2023-03-28T01:16:57.667Z,5.80
2023-03-28T01:20:35.975Z,6.10
2023-03-28T01:24:42.185Z,8.33
2023-03-28T01:28:41.372Z,5.70
2023-03-28T01:32:39.037Z,11.03
2023-03-28T01:37:10.232Z,5.67
2023-03-28T01:41:05.927Z,4.27
2023-03-28T01:45:19.146Z,5.40
2023-03-28T01:49:28.778Z,6.60
2023-03-28T01:53:27.148Z,7.27
2023-03-28T01:57:00.648Z,7.70
2023-03-28T02:01:09.183Z,5.27
2023-03-28T02:04:45.131Z,8.60
2023-03-28T02:08:13.425Z,5.47
2023-03-28T02:12:09.755Z,6.13
2023-03-28T02:16:01.282Z,5.57
2023-03-28T02:19:46.195Z,9.77
2023-03-28T02:23:31.363Z,4.70
2023-03-28T02:27:22.540Z,5.63
2023-03-28T02:30:53.436Z,5.70
2023-03-28T02:34:17.104Z,4.50
2023-03-28T02:38:04.503Z,5.93
2023-03-28T02:46:53.483Z,8.20
2023-03-28T02:50:39.834Z,3.93
2023-03-28T02:54:25.400Z,5.37
2023-03-28T02:58:22.460Z,7.90
2023-03-28T03:01:45.384Z,8.43
2023-03-28T03:05:09.670Z,6.47
2023-03-28T03:08:32.617Z,6.40
2023-03-28T03:11:54.527Z,8.40
2023-03-28T03:15:19.110Z,6.40
2023-03-28T03:18:43.559Z,4.03
2023-03-28T03:22:05.441Z,4.30
2023-03-28T03:25:31.214Z,5.90
2023-03-28T03:29:02.885Z,7.70
2023-03-28T03:32:28.174Z,6.53
2023-03-28T03:35:59.565Z,8.30
2023-03-28T03:39:23.293Z,5.87
2023-03-28T03:42:45.302Z,6.60
2023-03-28T03:46:07.549Z,4.37
2023-03-28T03:49:29.391Z,5.63
2023-03-28T03:52:52.712Z,5.43
2023-03-28T03:56:24.393Z,3.57
2023-03-28T03:59:49.462Z,6.77
2023-03-28T04:03:25.010Z,13.60
2023-03-28T04:06:50.347Z,9.37
2023-03-28T04:10:12.903Z,6.73
2023-03-28T04:13:34.901Z,4.97
2023-03-28T04:16:58.129Z,7.20
2023-03-28T04:20:25.563Z,7.53
2023-03-28T04:24:20.916Z,6.97
2023-03-28T04:27:54.600Z,6.77
2023-03-28T04:31:17.918Z,5.00
2023-03-28T04:34:45.715Z,5.57
2023-03-28T04:38:20.419Z,5.80
2023-03-28T04:41:49.533Z,5.67
2023-03-28T04:45:23.409Z,6.67
2023-03-28T04:48:56.554Z,7.90
2023-03-28T04:52:40.202Z,5.10
2023-03-28T04:56:02.980Z,9.37
2023-03-28T04:59:27.023Z,8.60
2023-03-28T05:02:59.911Z,7.43
2023-03-28T05:06:25.871Z,8.87
2023-03-28T05:09:48.310Z,6.87
2023-03-28T05:13:10.245Z,8.20
2023-03-28T05:16:39.963Z,5.63
2023-03-28T05:20:22.277Z,5.77
2023-03-28T05:23:52.113Z,6.47
2023-03-28T05:27:17.896Z,8.20
2023-03-28T05:30:40.124Z,6.23
2023-03-28T05:34:06.184Z,8.10
2023-03-28T05:37:39.215Z,6.67
2023-03-28T05:41:04.614Z,7.77
2023-03-28T05:44:26.431Z,10.90
2023-03-28T05:48:07.300Z,11.07
2023-03-28T05:51:38.228Z,10.87
2023-03-28T05:55:00.342Z,8.73
2023-03-28T05:58:22.145Z,6.60
2023-03-28T06:01:46.153Z,10.00
2023-03-28T06:05:09.749Z,6.40
2023-03-28T06:08:31.724Z,10.13
2023-03-28T06:11:53.614Z,14.20
2023-03-28T06:15:16.324Z,20.83
2023-03-28T06:18:41.560Z,15.70
2023-03-28T06:22:03.646Z,20.03
2023-03-28T06:25:25.887Z,10.67
2023-03-28T06:28:49.160Z,11.50
2023-03-28T06:32:17.825Z,7.30
2023-03-28T06:35:39.688Z,7.05
2023-03-28T06:39:03.244Z,8.90
2023-03-28T06:42:27.084Z,9.07
2023-03-28T06:46:10.136Z,8.00
2023-03-28T06:49:37.564Z,6.93
2023-03-28T06:52:59.356Z,1999.90
2023-03-28T06:56:21.770Z,1999.90
2023-03-28T06:59:44.751Z,1999.90
2023-03-28T07:03:14.314Z,1999.90
2023-03-28T07:06:36.397Z,1815.57
2023-03-28T07:09:58.336Z,1993.72
2023-03-28T07:13:22.183Z,6.95
2023-03-28T07:16:54.972Z,8.77
2023-03-28T07:20:17.032Z,10.82
2023-03-28T07:23:39.805Z,10.85
2023-03-28T07:27:15.004Z,7.20
2023-03-28T07:30:39.554Z,7.43
2023-03-28T07:34:02.182Z,5.55
2023-03-28T07:37:25.277Z,5.75
2023-03-28T07:41:12.868Z,5.60
2023-03-28T07:44:34.853Z,5.65
2023-03-28T07:47:56.871Z,6.50
2023-03-28T07:51:19.465Z,5.97
2023-03-28T07:54:41.445Z,8.57
2023-03-28T07:58:03.407Z,4.70
2023-03-28T08:01:32.186Z,7.15
2023-03-28T08:04:56.578Z,4.53
2023-03-28T08:08:21.465Z,5.72
2023-03-28T08:11:56.419Z,8.20
2023-03-28T08:15:21.565Z,5.88
2023-03-28T08:18:43.426Z,9.13
2023-03-28T08:22:05.875Z,5.80
2023-03-28T08:25:37.080Z,8.25
2023-03-28T08:29:00.253Z,6.60
2023-03-28T08:32:26.778Z,6.40
2023-03-28T08:35:56.750Z,9.63
2023-03-28T08:39:19.664Z,5.10
2023-03-28T08:42:59.808Z,5.57
2023-03-28T08:46:28.488Z,5.22
2023-03-28T08:50:06.881Z,5.97
2023-03-28T08:53:51.722Z,22.60
2023-03-28T08:57:27.621Z,10.52
2023-03-28T09:00:52.046Z,6.03
2023-03-28T09:04:35.578Z,6.32
2023-03-28T09:08:36.565Z,7.88
2023-03-28T09:12:24.125Z,12.57
2023-03-28T09:16:10.384Z,6.38
2023-03-28T09:20:11.107Z,6.53
2023-03-28T09:24:30.994Z,7.57
2023-03-28T09:28:48.411Z,7.85
2023-03-28T09:32:33.011Z,7.93
2023-03-28T09:36:31.514Z,5.97
2023-03-28T09:40:21.260Z,6.07
2023-03-28T09:44:14.809Z,5.90
2023-03-28T09:47:55.309Z,8.50
2023-03-28T09:51:21.440Z,5.95
2023-03-28T09:54:57.870Z,6.95
2023-03-28T09:58:20.261Z,6.13
2023-03-28T10:02:04.071Z,3.85
2023-03-28T10:05:41.318Z,10.18
2023-03-28T10:09:28.643Z,6.93
2023-03-28T10:13:03.860Z,4.95
2023-03-28T10:16:32.199Z,7.88
2023-03-28T10:20:23.966Z,7.25
2023-03-28T10:23:57.292Z,7.25
2023-03-28T10:27:32.642Z,5.43
2023-03-28T10:31:01.773Z,6.93
2023-03-28T10:34:31.528Z,7.03
2023-03-28T10:38:04.737Z,11.07
2023-03-28T10:41:54.355Z,9.93
2023-03-28T10:45:46.440Z,10.05
2023-03-28T10:49:17.732Z,5.57
2023-03-28T10:53:35.491Z,9.68
2023-03-28T10:57:15.436Z,6.22
2023-03-28T11:01:03.304Z,7.30
2023-03-28T11:04:58.879Z,6.25
2023-03-28T11:08:49.052Z,10.02
2023-03-28T11:12:51.245Z,8.75
2023-03-28T11:16:48.081Z,5.95
2023-03-28T11:20:41.508Z,14.07
2023-03-28T11:24:49.874Z,8.05
2023-03-28T11:29:12.816Z,7.68
2023-03-28T11:33:04.117Z,11.90
2023-03-28T11:36:47.815Z,4.80
2023-03-28T11:40:36.364Z,6.03
2023-03-28T11:44:22.479Z,6.70
2023-03-28T11:48:03.536Z,4.30
2023-03-28T11:51:42.996Z,7.80
2023-03-28T11:55:16.808Z,3.63
2023-03-28T11:58:45.854Z,5.88
2023-03-28T12:02:31.091Z,7.78
2023-03-28T12:06:11.053Z,5.40
2023-03-28T12:09:44.332Z,5.30
2023-03-28T12:13:23.980Z,7.30
2023-03-28T12:16:59.011Z,8.02
2023-03-28T12:20:59.685Z,5.95
2023-03-28T12:25:05.995Z,9.93
2023-03-28T12:32:39.429Z,5.80
2023-03-28T12:36:42.922Z,2.95
2023-03-28T12:40:57.515Z,6.70
2023-03-28T12:44:31.032Z,8.02
2023-03-28T12:48:03.648Z,9.20
2023-03-28T12:51:43.238Z,4.78
2023-03-28T12:55:31.421Z,5.07
2023-03-28T12:58:56.094Z,6.07
2023-03-28T13:02:46.366Z,6.03
2023-03-28T13:06:48.815Z,8.07
2023-03-28T13:10:44.894Z,6.40
2023-03-28T13:14:42.211Z,5.72
2023-03-28T13:18:21.865Z,14.02
2023-03-28T13:22:02.151Z,5.35
2023-03-28T13:25:32.508Z,6.05
2023-03-28T13:29:00.440Z,3.53
2023-03-28T13:32:25.557Z,5.60
2023-03-28T13:36:08.593Z,5.03
2023-03-28T13:39:32.816Z,5.28
2023-03-28T13:42:59.444Z,5.78
2023-03-28T13:46:36.264Z,5.18
2023-03-28T13:50:26.442Z,5.45
2023-03-28T13:53:48.843Z,5.38
2023-03-28T13:57:18.295Z,6.40
2023-03-28T14:00:41.003Z,6.05
2023-03-28T14:04:12.384Z,4.10
2023-03-28T14:07:35.326Z,2.35
2023-03-28T14:11:00.658Z,4.10
2023-03-28T14:14:32.727Z,8.68
2023-03-28T14:17:58.908Z,3.85
2023-03-28T14:21:25.561Z,6.05
2023-03-28T14:24:54.165Z,5.22
2023-03-28T14:28:16.419Z,5.18
2023-03-28T14:31:48.418Z,5.70
2023-03-28T14:35:24.119Z,3.72
2023-03-28T14:38:46.313Z,4.95
2023-03-28T14:42:16.023Z,5.00
2023-03-28T14:45:43.334Z,4.55
2023-03-28T14:49:09.985Z,7.20
2023-03-28T14:52:36.538Z,7.88
2023-03-28T14:56:08.762Z,7.65
2023-03-28T14:59:43.891Z,5.10
2023-03-28T15:03:13.141Z,6.90
2023-03-28T15:06:36.392Z,4.70
2023-03-28T15:10:26.226Z,6.05
2023-03-28T15:14:30.524Z,3.17
2023-03-28T15:17:56.251Z,6.25
2023-03-28T15:21:18.244Z,9.05
2023-03-28T15:24:41.307Z,4.35
2023-03-28T15:28:10.538Z,5.05
2023-03-28T15:31:34.068Z,7.00
2023-03-28T15:35:03.153Z,4.97
2023-03-28T15:38:28.218Z,4.75
2023-03-28T15:42:24.702Z,11.20
2023-03-28T15:45:58.270Z,4.57
2023-03-28T15:49:34.442Z,5.90
2023-03-28T15:53:12.585Z,6.13
2023-03-28T15:56:37.087Z,4.93
2023-03-28T16:00:00.784Z,4.80
2023-03-28T16:03:32.475Z,6.43
2023-03-28T16:07:09.152Z,9.35
2023-03-28T16:10:31.107Z,4.47
2023-03-28T16:14:33.949Z,9.60
2023-03-28T16:18:27.017Z,4.43
2023-03-28T16:21:59.753Z,7.82
2023-03-28T16:25:22.842Z,3.78
2023-03-28T16:28:44.830Z,6.47
2023-03-28T16:32:16.267Z,8.23
2023-03-28T16:35:38.161Z,5.90
2023-03-28T16:39:02.143Z,5.15
2023-03-28T16:42:30.909Z,6.70
2023-03-28T16:45:52.790Z,6.20
2023-03-28T16:49:16.491Z,8.87
2023-03-28T16:52:45.429Z,7.83
2023-03-28T16:56:14.981Z,5.33
2023-03-28T16:59:42.809Z,3.80
2023-03-28T17:03:05.891Z,5.97
2023-03-28T17:06:28.056Z,5.57
2023-03-28T17:09:50.708Z,4.50
2023-03-28T17:13:17.058Z,4.40
2023-03-28T17:16:40.503Z,5.33
2023-03-28T17:20:11.766Z,6.13
2023-03-28T17:23:44.261Z,4.23
2023-03-28T17:27:06.410Z,3.97
2023-03-28T17:30:34.181Z,5.83
2023-03-28T17:34:00.274Z,5.13
2023-03-28T17:37:25.310Z,4.20
2023-03-28T17:40:49.595Z,5.43
2023-03-28T17:44:11.625Z,5.50
2023-03-28T17:47:48.731Z,4.40
2023-03-28T17:51:13.751Z,6.83
2023-03-28T17:54:43.149Z,7.73
2023-03-28T17:58:05.152Z,6.20
2023-03-28T18:01:27.205Z,7.30
2023-03-28T18:04:51.070Z,3.77
2023-03-28T18:08:21.804Z,8.27
2023-03-28T18:11:45.845Z,8.03
2023-03-28T18:15:08.162Z,6.57
2023-03-28T18:18:33.633Z,7.60
2023-03-28T18:21:56.113Z,6.93
2023-03-28T18:25:18.161Z,6.87
2023-03-28T18:28:41.038Z,3.67
2023-03-28T18:32:03.273Z,6.17
2023-03-28T18:35:27.031Z,5.83
2023-03-28T18:38:49.919Z,7.20
2023-03-28T18:42:11.701Z,7.23
2023-03-28T18:45:35.798Z,7.10
2023-03-28T18:49:01.791Z,4.87
2023-03-28T18:52:29.102Z,6.80
2023-03-28T18:55:53.014Z,6.27
2023-03-28T18:59:15.010Z,4.93
2023-03-28T19:02:37.523Z,5.93
2023-03-28T19:06:02.347Z,5.90
2023-03-28T19:09:24.806Z,7.60
2023-03-28T19:12:47.057Z,10.87
2023-03-28T19:16:15.344Z,4.23
2023-03-28T19:19:37.561Z,6.43
2023-03-28T19:22:59.597Z,6.00
2023-03-28T19:26:23.234Z,5.90
2023-03-28T19:29:48.036Z,4.47
2023-03-28T19:33:10.124Z,3.47
2023-03-28T19:36:32.079Z,5.30
2023-03-28T19:39:53.940Z,7.70
2023-03-28T19:43:20.846Z,6.87
2023-03-28T19:46:42.858Z,3.63
2023-03-28T19:50:07.937Z,4.37
2023-03-28T19:53:30.069Z,5.90
2023-03-28T19:56:52.021Z,5.03
2023-03-28T20:00:14.902Z,5.03
2023-03-28T20:03:42.853Z,5.37
2023-03-28T20:07:06.766Z,11.00
2023-03-28T20:10:28.657Z,3.50
2023-03-28T20:13:51.086Z,4.90
2023-03-28T20:17:13.595Z,4.43
2023-03-28T20:20:39.176Z,3.47
2023-03-28T20:24:02.105Z,3.47
2023-03-28T20:27:25.012Z,4.00
2023-03-28T20:30:47.883Z,6.93
2023-03-28T20:34:09.847Z,3.70
2023-03-28T20:37:32.313Z,5.40
2023-03-28T20:40:54.234Z,5.13
2023-03-28T20:44:19.939Z,5.03
2023-03-28T20:47:42.800Z,9.40
2023-03-28T20:51:17.296Z,4.00
2023-03-28T20:54:39.532Z,5.60
2023-03-28T20:58:02.049Z,4.70
2023-03-28T21:01:28.027Z,2.70
2023-03-28T21:04:50.171Z,6.67
2023-03-28T21:08:14.397Z,3.60
2023-03-28T21:11:39.372Z,2.67
2023-03-28T21:15:01.401Z,3.53
2023-03-28T21:18:23.548Z,4.97
2023-03-28T21:21:45.538Z,4.10
2023-03-28T21:25:10.054Z,8.10
2023-03-28T21:28:33.359Z,4.73
2023-03-28T21:31:55.221Z,4.20
2023-03-28T21:35:17.230Z,6.80
2023-03-28T21:38:40.753Z,4.03
2023-03-28T21:42:02.612Z,4.13
2023-03-28T21:45:24.632Z,4.10
2023-03-28T21:48:48.529Z,5.23
2023-03-28T21:52:11.534Z,4.97
2023-03-28T21:55:33.720Z,3.63
2023-03-28T21:58:57.609Z,3.67
2023-03-28T22:02:33.873Z,4.57
2023-03-28T22:05:56.017Z,6.13
2023-03-28T22:09:19.464Z,4.63
2023-03-28T22:12:44.752Z,5.50
2023-03-28T22:16:09.221Z,5.03
2023-03-28T22:19:33.812Z,9.70
2023-03-28T22:23:00.991Z,5.83
2023-03-28T22:26:27.217Z,6.63
2023-03-28T22:29:49.796Z,6.20
2023-03-28T22:33:13.381Z,5.37
2023-03-28T22:36:35.272Z,6.67
2023-03-28T22:39:57.253Z,7.27
2023-03-28T22:43:19.300Z,3.27
2023-03-28T22:46:42.714Z,3.37
2023-03-28T22:50:08.053Z,3.63
2023-03-28T22:53:31.865Z,4.57
2023-03-28T22:56:53.724Z,3.67
2023-03-28T23:00:16.442Z,3.60
2023-03-28T23:03:39.242Z,4.33
2023-03-28T23:07:01.151Z,6.10
2023-03-28T23:10:23.222Z,4.43
2023-03-28T23:13:45.305Z,3.90
2023-03-28T23:17:07.159Z,7.30
2023-03-28T23:20:30.443Z,5.93
2023-03-28T23:23:53.601Z,5.37
2023-03-28T23:27:15.571Z,7.20
2023-03-28T23:30:39.149Z,2.87
2023-03-28T23:34:01.051Z,3.20
2023-03-28T23:37:26.010Z,3.07
2023-03-28T23:40:48.993Z,7.90
2023-03-28T23:44:11.874Z,3.73
2023-03-28T23:47:33.758Z,2.67
2023-03-28T23:50:55.608Z,6.47
2023-03-28T23:54:18.545Z,2.07
2023-03-28T23:57:41.325Z,4.73
